Time;durP1;ratioP1;P1;durP2;ratioP2;P2;SDS_P1;SDS_P2;PMS_P1;PMS_P2;Temp;Humidity;BMP_temperature;BMP_pressure;BME280_temperature;BME280_humidity;BME280_pressure;Samples;Min_cycle;Max_cycle;Signal;HPM_P1;HPM_P2
2022/08/12 00:44:48;;;;;;;;;15.00;15.00;;;;;27.79;22.27;101070.97;5080890;28;45242;-58
2022/08/12 00:47:14;;;;;;;;;14.00;14.00;;;;;27.76;22.30;101082.88;5080427;28;45365;-58
2022/08/12 00:49:40;;;;;;;;;16.00;15.50;;;;;27.73;22.25;101078.59;5078652;28;45247;-58
2022/08/12 00:52:05;;;;;;;;;14.00;13.75;;;;;27.69;22.63;101079.81;5074352;28;45539;-58
2022/08/12 00:54:42;;;;;;;;;15.50;14.25;;;;;27.66;22.63;101071.09;5080757;28;45473;-57
2022/08/12 00:57:09;;;;;;;;;14.25;14.00;;;;;27.63;22.38;101074.06;5080434;28;46191;-58
2022/08/12 00:59:41;;;;;;;;;15.00;15.00;;;;;27.60;22.64;101077.00;5079283;28;45348;-58
2022/08/12 01:02:06;;;;;;;;;11.50;11.25;;;;;27.56;22.49;101077.25;5077465;28;46536;-58
2022/08/12 01:12:48;;;;;;;;;13.50;13.25;;;;;27.43;23.21;101065.72;5060258;28;45490;-58
2022/08/12 01:15:14;;;;;;;;;13.75;12.25;;;;;27.37;23.11;101061.66;5059858;28;45547;-58
2022/08/12 01:17:43;;;;;;;;;14.25;14.25;;;;;27.37;23.23;101060.78;5059818;28;46071;-58
2022/08/12 01:20:16;;;;;;;;;14.50;14.50;;;;;27.33;23.28;101059.31;5059764;28;45234;-58
2022/08/12 01:22:54;;;;;;;;;14.75;14.75;;;;;27.30;22.63;101065.81;5059879;28;45163;-58
2022/08/12 01:25:23;;;;;;;;;11.25;11.25;;;;;27.28;22.93;101066.94;5067305;28;45214;-58
2022/08/12 01:27:50;;;;;;;;;11.75;11.00;;;;;27.24;22.66;101069.88;5079989;28;45569;-58
2022/08/12 01:30:17;;;;;;;;;13.50;13.25;;;;;27.22;23.25;101068.28;5080144;28;45215;-58
2022/08/12 01:32:46;;;;;;;;;15.00;13.75;;;;;27.18;22.72;101067.69;5079737;28;45283;-58
2022/08/12 01:35:16;;;;;;;;;13.25;11.25;;;;;27.17;23.47;101070.47;5080033;28;45628;-58
2022/08/12 01:38:03;;;;;;;;;12.75;11.00;;;;;27.15;23.37;101076.00;5079918;28;46233;-58
2022/08/12 01:40:32;;;;;;;;;12.75;12.75;;;;;27.12;23.14;101065.47;5079927;28;45228;-58
2022/08/12 01:43:04;;;;;;;;;11.75;11.50;;;;;27.09;22.98;101061.19;5079902;28;45327;-58
2022/08/12 01:45:31;;;;;;;;;12.25;11.25;;;;;27.07;22.80;101070.38;5065502;28;46141;-58
2022/08/12 01:48:15;;;;;;;;;13.50;13.00;;;;;27.03;23.55;101063.47;5079250;28;46042;-58
2022/08/12 01:51:10;;;;;;;;;10.75;9.00;;;;;27.00;22.82;101063.75;5071083;28;45290;-58
2022/08/12 01:53:56;;;;;;;;;16.00;16.00;;;;;26.96;22.96;101065.81;5058432;28;45485;-57
2022/08/12 01:56:25;;;;;;;;;13.25;12.00;;;;;26.94;23.36;101065.06;5059577;28;45316;-58
2022/08/12 02:01:40;;;;;;;;;12.25;12.25;;;;;26.86;23.28;101062.97;5065847;28;46383;-58
2022/08/12 02:11:17;;;;;;;;;15.50;13.50;;;;;26.74;23.10;101059.41;5058455;28;45817;-57
2022/08/12 02:13:54;;;;;;;;;14.25;13.50;;;;;26.72;22.98;101055.94;5083076;28;45483;-58
2022/08/12 02:16:45;;;;;;;;;13.25;13.25;;;;;26.70;23.11;101052.50;5083402;28;45227;-58
2022/08/12 02:19:41;;;;;;;;;12.25;12.25;;;;;26.68;23.03;101045.50;5082996;27;45558;-58
2022/08/12 02:22:38;;;;;;;;;11.50;11.50;;;;;26.63;23.64;101045.00;5083005;28;45427;-58
2022/08/12 02:25:12;;;;;;;;;13.75;12.50;;;;;26.59;23.26;101039.88;5051828;28;45437;-57
2022/08/12 02:27:40;;;;;;;;;13.50;11.25;;;;;26.55;23.76;101043.78;5062737;28;45263;-57
2022/08/12 02:30:12;;;;;;;;;11.50;10.00;;;;;26.53;23.35;101042.19;5062408;28;45608;-58
2022/08/12 02:32:42;;;;;;;;;11.00;10.25;;;;;26.48;22.95;101039.84;5062143;28;46912;-58
2022/08/12 02:35:18;;;;;;;;;17.50;15.25;;;;;26.47;24.00;101046.19;5062540;28;45476;-58
2022/08/12 02:37:46;;;;;;;;;14.25;12.25;;;;;26.46;23.75;101049.03;5062679;28;45267;-58
2022/08/12 02:40:13;;;;;;;;;13.00;13.00;;;;;26.41;23.36;101043.97;5062436;28;45482;-58
2022/08/12 02:42:57;;;;;;;;;14.25;13.00;;;;;26.39;24.03;101046.78;5062058;28;46445;-58
2022/08/12 02:45:32;;;;;;;;;13.00;11.50;;;;;26.36;24.10;101038.94;5062405;28;45385;-61
2022/08/12 02:48:05;;;;;;;;;14.00;14.00;;;;;26.35;23.55;101047.13;5062050;28;45483;-58
2022/08/12 02:50:33;;;;;;;;;16.50;15.50;;;;;26.32;23.51;101033.91;5062786;28;45351;-58
2022/08/12 02:52:59;;;;;;;;;13.00;13.00;;;;;26.31;23.78;101041.13;5081244;28;48658;-58
2022/08/12 02:55:30;;;;;;;;;12.00;11.75;;;;;26.29;23.86;101035.00;5082381;28;45377;-58
2022/08/12 02:57:57;;;;;;;;;14.00;13.75;;;;;26.22;23.70;101026.50;5082380;28;45449;-58
2022/08/12 03:00:25;;;;;;;;;13.25;13.25;;;;;26.22;24.14;101031.91;5082412;28;45354;-58
2022/08/12 03:02:51;;;;;;;;;12.50;12.50;;;;;26.19;23.64;101029.47;5073064;28;45365;-59
2022/08/12 03:05:22;;;;;;;;;14.25;12.25;;;;;26.17;24.17;101026.00;5062239;28;45280;-58
2022/08/12 03:07:53;;;;;;;;;11.25;11.25;;;;;26.13;24.03;101029.91;5061966;28;45366;-58
2022/08/12 03:10:23;;;;;;;;;15.50;14.25;;;;;26.11;23.65;101037.25;5061874;28;45158;-58
2022/08/12 03:12:53;;;;;;;;;12.75;12.00;;;;;26.07;24.19;101031.22;5062036;28;47096;-58
2022/08/12 03:15:21;;;;;;;;;14.50;14.50;;;;;26.06;24.30;101039.44;5061777;28;45241;-58
2022/08/12 03:18:01;;;;;;;;;10.75;10.75;;;;;26.03;23.83;101043.19;5061657;28;45319;-58
2022/08/12 03:20:27;;;;;;;;;14.25;14.25;;;;;26.00;24.36;101038.03;5061731;28;45259;-58
2022/08/12 03:22:52;;;;;;;;;12.00;11.50;;;;;25.96;24.54;101040.09;5061028;28;45268;-58
2022/08/12 03:25:23;;;;;;;;;13.00;13.00;;;;;25.95;24.30;101037.53;5077027;28;45321;-58
2022/08/12 03:27:54;;;;;;;;;13.75;13.75;;;;;25.93;23.86;101051.06;5062013;28;45330;-58
2022/08/12 03:30:22;;;;;;;;;13.50;12.50;;;;;25.87;23.95;101032.69;5061870;28;45354;-58
2022/08/12 03:32:49;;;;;;;;;15.00;14.75;;;;;25.86;24.47;101036.38;5061044;28;45418;-59
2022/08/12 03:35:26;;;;;;;;;12.50;12.50;;;;;25.84;24.14;101043.69;5061742;28;45352;-58
2022/08/12 03:37:55;;;;;;;;;14.50;14.50;;;;;25.79;24.18;101037.81;5061634;28;45247;-58
2022/08/12 04:02:40;;;;;;;;;13.00;13.00;;;;;25.51;24.72;101047.91;5074233;28;45322;-58
2022/08/12 04:05:10;;;;;;;;;16.00;13.25;;;;;25.45;24.83;101038.44;5060917;28;47093;-58
2022/08/12 04:07:36;;;;;;;;;12.25;12.25;;;;;25.45;24.57;101040.28;5061111;28;45291;-58
2022/08/12 04:10:02;;;;;;;;;18.50;14.25;;;;;25.44;24.58;101035.84;5061259;28;45267;-58
2022/08/12 04:15:13;;;;;;;;;12.00;12.00;;;;;25.37;24.81;101032.75;5060902;28;45271;-58
2022/08/12 04:17:41;;;;;;;;;15.25;13.00;;;;;25.35;24.89;101031.13;5060568;28;45223;-58
2022/08/12 04:20:10;;;;;;;;;13.75;12.50;;;;;25.33;24.61;101033.06;5060949;28;45315;-58
2022/08/12 04:22:37;;;;;;;;;14.75;14.25;;;;;25.31;24.72;101033.16;5066629;28;45476;-58
2022/08/12 04:25:02;;;;;;;;;12.00;12.00;;;;;25.28;24.97;101030.69;5060580;28;45254;-58
2022/08/12 04:27:30;;;;;;;;;14.00;14.00;;;;;25.24;24.96;101026.50;5060761;28;45223;-58
2022/08/12 04:29:57;;;;;;;;;16.00;14.75;;;;;25.24;24.96;101031.88;5060815;28;45469;-58
2022/08/12 04:32:25;;;;;;;;;14.50;14.50;;;;;25.20;25.22;101027.72;5060244;28;45422;-58
2022/08/12 04:34:51;;;;;;;;;13.00;13.00;;;;;25.17;24.70;101034.16;5060551;28;45255;-58
2022/08/12 04:37:17;;;;;;;;;13.50;13.00;;;;;25.14;24.98;101035.25;5060602;28;45321;-58
2022/08/12 04:39:44;;;;;;;;;15.25;14.50;;;;;25.10;25.21;101032.88;5060599;28;45200;-58
2022/08/12 04:42:10;;;;;;;;;13.00;12.75;;;;;25.11;24.83;101042.66;5060538;28;45479;-58
2022/08/12 04:44:35;;;;;;;;;11.00;11.00;;;;;25.10;24.88;101049.00;5060374;28;45347;-58
2022/08/12 04:47:00;;;;;;;;;13.50;13.50;;;;;25.07;25.18;101047.41;5060277;28;45464;-58
2022/08/12 04:49:26;;;;;;;;;14.00;14.00;;;;;25.04;25.20;101039.53;5060471;28;45268;-58
2022/08/12 04:51:52;;;;;;;;;14.50;14.50;;;;;25.03;25.26;101043.22;5072484;28;45410;-58
2022/08/12 04:54:19;;;;;;;;;15.00;15.00;;;;;25.00;25.31;101046.09;5060319;28;47621;-58
2022/08/12 04:56:45;;;;;;;;;16.25;14.75;;;;;24.98;25.32;101053.41;5072781;28;45320;-59
2022/08/12 04:59:14;;;;;;;;;15.75;15.50;;;;;24.94;25.25;101055.47;5080410;28;45437;-58
2022/08/12 05:01:39;;;;;;;;;14.00;14.00;;;;;24.92;25.35;101046.66;5073176;28;45572;-59
2022/08/12 05:04:08;;;;;;;;;18.00;14.50;;;;;24.87;25.25;101046.09;5060904;27;46356;-58
2022/08/12 05:06:33;;;;;;;;;20.50;19.50;;;;;24.83;25.20;101042.78;5060075;28;45365;-58
2022/08/12 05:08:59;;;;;;;;;17.25;17.25;;;;;24.85;25.45;101044.50;5060155;28;45251;-58
2022/08/12 05:11:25;;;;;;;;;16.00;15.75;;;;;24.82;25.79;101051.78;5060430;28;46417;-58
2022/08/12 05:13:59;;;;;;;;;14.75;14.75;;;;;24.80;25.68;101052.88;5059461;28;45735;-58
2022/08/12 05:16:25;;;;;;;;;14.75;14.75;;;;;24.78;25.74;101052.97;5059443;28;45342;-58
2022/08/12 05:18:51;;;;;;;;;17.75;14.75;;;;;24.77;25.43;101059.31;5060033;28;45283;-58
2022/08/12 05:21:17;;;;;;;;;15.00;14.25;;;;;24.76;25.89;101056.75;5059728;28;45485;-58
2022/08/12 05:23:42;;;;;;;;;13.25;13.25;;;;;24.76;25.69;101051.38;5058488;28;46191;-58
2022/08/12 05:26:08;;;;;;;;;17.00;16.00;;;;;24.74;25.76;101053.28;5069167;28;45399;-58
2022/08/12 05:28:34;;;;;;;;;16.50;14.25;;;;;24.73;25.57;101055.13;5058740;28;45492;-58
2022/08/12 05:31:00;;;;;;;;;13.25;13.25;;;;;24.73;25.72;101051.56;5059467;28;45434;-58
2022/08/12 05:33:36;;;;;;;;;14.00;13.00;;;;;24.72;26.00;101066.00;5059583;28;47493;-58
2022/08/12 05:36:06;;;;;;;;;13.50;13.50;;;;;24.71;26.12;101058.91;5059316;28;45389;-58
2022/08/12 05:41:19;;;;;;;;;16.25;15.00;;;;;24.69;26.31;101055.44;5059710;28;45237;-58
2022/08/12 05:43:50;;;;;;;;;17.50;16.00;;;;;24.69;26.21;101063.50;5058000;28;45407;-57
2022/08/12 05:46:17;;;;;;;;;20.50;18.50;;;;;24.64;26.15;101055.72;5062325;28;45287;-58
2022/08/12 05:48:42;;;;;;;;;14.75;14.75;;;;;24.66;25.76;101065.41;5072260;28;45239;-56
2022/08/12 05:51:10;;;;;;;;;16.75;16.75;;;;;24.66;26.22;101059.19;5068848;28;45368;-59
2022/08/12 05:53:39;;;;;;;;;13.25;13.25;;;;;24.64;26.30;101058.41;5083605;27;47125;-59
2022/08/12 05:56:05;;;;;;;;;16.50;14.25;;;;;24.66;26.10;101057.38;5083220;28;45267;-57
2022/08/12 05:58:31;;;;;;;;;18.00;13.25;;;;;24.65;26.32;101066.41;5083500;28;45425;-57
2022/08/12 06:00:57;;;;;;;;;18.50;16.25;;;;;24.66;26.04;101062.75;5069346;28;45547;-59
2022/08/12 06:03:24;;;;;;;;;13.75;12.25;;;;;24.65;26.11;101057.47;5069513;27;46060;-58
2022/08/12 06:05:51;;;;;;;;;14.00;13.75;;;;;24.67;26.43;101066.31;5062924;28;45193;-58
2022/08/12 06:08:17;;;;;;;;;13.00;12.00;;;;;24.62;26.04;101045.09;5062998;28;45497;-57
2022/08/12 06:10:44;;;;;;;;;15.00;15.00;;;;;24.67;26.27;101052.88;5062943;28;45515;-57
2022/08/12 06:13:13;;;;;;;;;12.50;12.50;;;;;24.69;26.37;101050.06;5062728;28;47101;-57
2022/08/12 06:15:40;;;;;;;;;15.50;14.75;;;;;24.67;26.23;101047.50;5062217;28;45290;-57
2022/08/12 06:18:07;;;;;;;;;17.00;15.00;;;;;24.69;26.50;101058.13;5062351;28;45410;-57
2022/08/12 06:20:34;;;;;;;;;16.75;14.50;;;;;24.71;26.44;101050.84;5062696;28;45481;-54
2022/08/12 06:22:59;;;;;;;;;15.25;14.00;;;;;24.70;26.25;101052.63;5074997;28;45454;-54
2022/08/12 06:25:27;;;;;;;;;13.50;12.75;;;;;24.67;26.24;101050.19;5062584;28;45351;-54
2022/08/12 06:27:53;;;;;;;;;12.75;12.75;;;;;24.73;26.42;101057.81;5062737;28;45153;-54
2022/08/12 06:30:19;;;;;;;;;14.00;13.50;;;;;24.71;26.23;101050.84;5062478;28;45326;-55
2022/08/12 06:32:46;;;;;;;;;16.50;14.50;;;;;24.74;26.55;101054.16;5061714;28;46255;-55
2022/08/12 06:35:13;;;;;;;;;15.25;15.25;;;;;24.75;26.48;101055.03;5062404;28;45366;-55
2022/08/12 06:37:44;;;;;;;;;15.00;13.25;;;;;24.78;26.78;101066.41;5062401;28;45318;-55
2022/08/12 06:40:12;;;;;;;;;13.00;12.75;;;;;24.80;26.29;101064.50;5062439;28;45521;-54
2022/08/12 06:42:47;;;;;;;;;13.50;13.50;;;;;24.83;26.31;101064.28;5061965;28;45399;-55
2022/08/12 06:45:16;;;;;;;;;15.75;12.50;;;;;24.83;26.15;101063.44;5062175;28;45335;-55
2022/08/12 06:47:41;;;;;;;;;12.50;12.50;;;;;24.86;26.71;101067.72;5060456;28;45510;-54
2022/08/12 06:50:08;;;;;;;;;12.75;12.00;;;;;24.89;26.50;101068.38;5062081;28;45145;-55
2022/08/12 06:52:34;;;;;;;;;14.00;14.00;;;;;24.91;26.10;101069.09;5079835;28;46017;-55
2022/08/12 06:54:59;;;;;;;;;14.00;13.00;;;;;24.95;26.24;101062.53;5082182;28;45212;-57
2022/08/12 06:57:26;;;;;;;;;17.00;14.50;;;;;24.99;26.37;101066.75;5081233;28;45247;-56
2022/08/12 06:59:53;;;;;;;;;14.75;14.75;;;;;25.05;26.40;101064.59;5082159;28;46494;-56
2022/08/12 07:02:19;;;;;;;;;12.00;12.00;;;;;25.09;26.49;101071.47;5077112;28;46490;-55
2022/08/12 07:04:46;;;;;;;;;13.50;12.00;;;;;25.12;26.57;101066.75;5061947;28;45275;-56
2022/08/12 07:07:12;;;;;;;;;17.00;14.50;;;;;25.18;26.11;101064.59;5061927;28;45236;-55
2022/08/12 07:09:38;;;;;;;;;16.00;13.00;;;;;25.22;26.46;101075.03;5062060;28;45420;-55
2022/08/12 07:12:04;;;;;;;;;15.00;13.00;;;;;25.27;26.12;101072.88;5061803;28;45256;-55
2022/08/12 07:14:29;;;;;;;;;13.00;11.50;;;;;25.31;26.59;101063.59;5061948;28;45241;-54
2022/08/12 07:17:00;;;;;;;;;12.25;12.00;;;;;25.34;26.15;101064.38;5061670;28;45169;-55
2022/08/12 07:19:26;;;;;;;;;15.25;13.75;;;;;25.39;26.49;101063.06;5061883;28;45405;-53
2022/08/12 07:21:51;;;;;;;;;11.75;11.75;;;;;25.46;26.14;101067.06;5061491;28;46020;-56
2022/08/12 07:24:17;;;;;;;;;13.00;12.00;;;;;25.51;26.04;101068.53;5061757;28;45280;-56
2022/08/12 07:26:43;;;;;;;;;13.00;13.00;;;;;25.55;26.26;101064.69;5061773;28;45287;-56
2022/08/12 07:29:09;;;;;;;;;13.50;13.50;;;;;25.62;26.54;101065.94;5061498;28;45453;-56
2022/08/12 07:31:36;;;;;;;;;12.50;11.50;;;;;25.67;25.82;101062.91;5060948;28;46303;-55
2022/08/12 07:34:02;;;;;;;;;14.50;12.50;;;;;25.73;26.61;101070.53;5061566;28;45290;-55
2022/08/12 07:36:27;;;;;;;;;13.00;12.00;;;;;25.77;26.27;101067.53;5061462;28;45550;-54
2022/08/12 07:38:53;;;;;;;;;12.00;11.75;;;;;25.83;25.87;101068.88;5061237;28;45381;-55
2022/08/12 07:41:24;;;;;;;;;13.00;13.00;;;;;25.89;26.15;101064.91;5061404;28;45291;-55
2022/08/12 07:43:59;;;;;;;;;12.50;12.00;;;;;25.94;26.38;101068.94;5061482;28;45300;-56
2022/08/12 07:46:31;;;;;;;;;15.25;13.25;;;;;25.98;26.03;101055.28;5061294;28;45464;-55
2022/08/12 07:49:00;;;;;;;;;12.25;12.00;;;;;26.06;26.31;101059.16;5061188;28;45431;-55
2022/08/12 07:51:27;;;;;;;;;12.00;11.00;;;;;26.12;25.98;101057.81;5069533;28;46390;-56
2022/08/12 07:53:57;;;;;;;;;15.00;13.00;;;;;26.18;26.14;101054.66;5081388;28;45556;-55
2022/08/12 07:56:23;;;;;;;;;16.50;15.00;;;;;26.25;26.29;101055.03;5081158;28;45252;-56
2022/08/12 07:58:49;;;;;;;;;9.25;9.25;;;;;26.31;26.35;101053.75;5081327;28;45380;-54
2022/08/12 08:01:20;;;;;;;;;15.25;13.00;;;;;26.38;25.86;101057.69;5080866;28;45840;-56
2022/08/12 08:06:39;;;;;;;;;13.75;13.75;;;;;26.50;26.22;101051.34;5061085;28;45221;-55
2022/08/12 08:09:05;;;;;;;;;12.50;12.25;;;;;26.58;25.86;101058.84;5060727;28;45536;-56
2022/08/12 08:14:14;;;;;;;;;11.75;11.00;;;;;26.71;25.68;101056.06;5061245;28;45376;-54
2022/08/12 08:16:41;;;;;;;;;11.50;11.50;;;;;26.80;25.54;101057.22;5060705;28;45304;-55
2022/08/12 08:19:08;;;;;;;;;11.50;11.50;;;;;26.85;25.91;101055.88;5070028;28;45538;-53
2022/08/12 08:21:34;;;;;;;;;12.25;11.00;;;;;26.93;26.27;101058.81;5081066;28;46049;-55
2022/08/12 08:24:15;;;;;;;;;11.50;11.00;;;;;26.98;25.85;101055.78;5081024;28;45347;-55
2022/08/12 08:26:43;;;;;;;;;10.50;10.50;;;;;27.08;25.45;101062.16;5081141;28;45478;-54
2022/08/12 08:29:11;;;;;;;;;10.50;10.50;;;;;27.15;25.95;101057.13;5081151;28;45223;-53
2022/08/12 08:31:45;;;;;;;;;14.50;12.00;;;;;27.22;25.56;101063.75;5080157;28;45289;-54
2022/08/12 08:34:13;;;;;;;;;13.75;12.50;;;;;27.31;25.98;101070.25;5080712;27;45310;-54
2022/08/12 08:36:39;;;;;;;;;12.00;10.50;;;;;27.38;25.32;101065.22;5081190;28;45334;-54
2022/08/12 08:39:06;;;;;;;;;10.25;10.00;;;;;27.46;25.02;101062.78;5080757;28;45453;-54
2022/08/12 08:44:16;;;;;;;;;7.75;7.75;;;;;27.63;25.38;101065.97;5080925;28;45283;-55
2022/08/12 08:46:43;;;;;;;;;7.75;7.75;;;;;27.72;24.90;101065.19;5080540;28;45306;-55
2022/08/12 08:49:09;;;;;;;;;9.50;9.50;;;;;27.81;24.82;101063.59;5080842;28;45310;-55
2022/08/12 08:51:35;;;;;;;;;8.75;7.50;;;;;27.83;24.84;101054.38;5071679;28;45505;-55
2022/08/12 08:54:01;;;;;;;;;8.00;8.00;;;;;27.97;25.11;101063.19;5080663;28;45247;-55
2022/08/12 08:56:29;;;;;;;;;8.50;8.50;;;;;28.07;25.13;101061.44;5079088;28;45379;-55
2022/08/12 08:58:56;;;;;;;;;7.50;7.50;;;;;28.14;24.69;101062.66;5080556;28;45393;-55
2022/08/12 09:01:21;;;;;;;;;9.00;9.00;;;;;28.24;24.88;101059.16;5079994;28;46322;-55
2022/08/12 09:03:47;;;;;;;;;8.50;8.50;;;;;28.33;24.31;101058.41;5063144;27;45216;-55
2022/08/12 09:06:13;;;;;;;;;9.25;9.25;;;;;28.43;24.52;101061.16;5060482;28;45219;-55
2022/08/12 09:08:42;;;;;;;;;8.50;8.50;;;;;28.51;24.59;101053.28;5060183;28;45427;-55
2022/08/12 09:13:52;;;;;;;;;8.25;8.25;;;;;28.70;24.72;101058.84;5060020;28;45323;-56
2022/08/12 09:16:19;;;;;;;;;7.50;7.50;;;;;28.79;24.46;101059.91;5068798;28;45542;-57
2022/08/12 09:18:45;;;;;;;;;10.50;8.25;;;;;28.90;24.42;101052.69;5060046;28;45320;-55
2022/08/12 09:21:11;;;;;;;;;6.25;6.25;;;;;29.00;24.23;101054.44;5059116;28;45335;-55
2022/08/12 09:23:36;;;;;;;;;9.00;9.00;;;;;29.11;24.47;101048.09;5065799;28;45256;-56
2022/08/12 09:26:02;;;;;;;;;9.00;9.00;;;;;29.21;24.29;101044.56;5066960;28;45429;-55
2022/08/12 09:28:28;;;;;;;;;11.75;11.00;;;;;29.30;24.16;101050.06;5059985;28;45225;-56
2022/08/12 09:30:57;;;;;;;;;8.50;8.50;;;;;29.41;23.90;101048.22;5059666;28;46315;-57
2022/08/12 09:33:29;;;;;;;;;9.00;9.00;;;;;29.49;24.30;101043.84;5059553;28;45369;-56
2022/08/12 09:35:56;;;;;;;;;9.25;9.25;;;;;29.62;24.14;101040.91;5059812;28;45224;-57
2022/08/12 09:38:22;;;;;;;;;7.75;7.75;;;;;29.73;23.96;101048.03;5059825;28;45395;-56
2022/08/12 09:40:48;;;;;;;;;6.75;6.75;;;;;29.85;23.53;101046.06;5059479;28;46888;-57
2022/08/12 09:45:59;;;;;;;;;8.75;8.75;;;;;30.07;23.81;101047.69;5059488;28;45334;-57
2022/08/12 09:48:25;;;;;;;;;7.25;7.25;;;;;30.18;23.71;101038.56;5059704;28;45240;-57
2022/08/12 09:50:52;;;;;;;;;9.25;9.25;;;;;30.31;23.24;101038.25;5062775;28;47033;-57
2022/08/12 09:53:23;;;;;;;;;7.25;6.25;;;;;30.45;23.44;101040.53;5079929;27;45202;-57
2022/08/12 09:55:53;;;;;;;;;9.00;8.75;;;;;30.57;23.56;101032.28;5079950;28;45310;-57
2022/08/12 09:58:28;;;;;;;;;6.50;6.50;;;;;30.71;23.20;101047.22;5079688;28;45387;-57
2022/08/12 10:00:56;;;;;;;;;9.25;8.00;;;;;30.83;23.12;101031.63;5079279;28;45991;-58
2022/08/12 10:03:25;;;;;;;;;8.00;8.00;;;;;30.96;22.94;101032.16;5074011;28;45482;-57
2022/08/12 10:05:52;;;;;;;;;9.00;8.75;;;;;31.08;22.63;101025.59;5059802;28;45323;-58
2022/08/12 10:08:18;;;;;;;;;10.00;7.75;;;;;31.20;22.81;101026.22;5058117;28;45531;-59
2022/08/12 10:13:41;;;;;;;;;7.25;7.25;;;;;31.51;23.21;101023.22;5063748;28;45399;-59
2022/08/12 10:16:28;;;;;;;;;6.25;6.25;;;;;31.64;22.16;101020.16;5059199;28;45417;-59
2022/08/12 10:19:02;;;;;;;;;6.00;6.00;;;;;31.78;22.91;101016.06;5059334;28;45427;-59
2022/08/12 10:21:35;;;;;;;;;9.50;9.50;;;;;31.93;22.49;101019.09;5059062;28;45461;-59
2022/08/12 10:24:08;;;;;;;;;6.50;6.50;;;;;32.07;22.01;101010.38;5057782;28;45435;-58
2022/08/12 10:29:38;;;;;;;;;6.50;6.50;;;;;32.40;21.93;101016.13;5059176;28;45233;-58
2022/08/12 10:32:09;;;;;;;;;6.50;6.50;;;;;32.55;21.83;101001.94;5069727;28;45338;-58
2022/08/12 10:34:35;;;;;;;;;7.75;7.00;;;;;32.75;21.76;101008.06;5082674;28;45335;-58
2022/08/12 10:37:02;;;;;;;;;8.00;7.00;;;;;32.98;22.02;101000.19;5083000;28;45280;-58
2022/08/12 10:39:32;;;;;;;;;6.50;6.25;;;;;33.25;22.21;101005.59;5081395;28;45286;-58
2022/08/12 10:44:45;;;;;;;;;7.75;7.00;;;;;34.07;22.13;100999.50;5082522;28;45305;-58
2022/08/12 10:47:10;;;;;;;;;7.75;7.75;;;;;34.56;22.19;100999.47;5082420;28;45272;-59
2022/08/12 10:49:36;;;;;;;;;7.00;7.00;;;;;35.11;22.04;100989.59;5080878;28;45326;-60
2022/08/12 10:52:03;;;;;;;;;7.25;6.25;;;;;35.69;22.22;100992.03;5074999;28;46085;-60
2022/08/12 10:54:29;;;;;;;;;6.25;5.50;;;;;36.28;21.63;100991.38;5082858;28;45236;-60
2022/08/12 10:56:56;;;;;;;;;6.75;6.75;;;;;36.84;21.09;100979.19;5082689;28;45245;-60
2022/08/12 10:59:23;;;;;;;;;6.25;6.25;;;;;37.36;21.43;100992.94;5082185;28;45309;-60
2022/08/12 11:01:50;;;;;;;;;9.00;7.00;;;;;37.86;20.75;100996.69;5074384;28;45424;-60
2022/08/12 11:04:15;;;;;;;;;5.00;5.00;;;;;38.40;20.66;100986.16;5062387;28;45362;-60
2022/08/12 11:06:49;;;;;;;;;7.00;5.25;;;;;38.92;20.75;100983.13;5071235;28;45463;-60
2022/08/12 11:09:30;;;;;;;;;7.50;6.75;;;;;39.54;20.23;100980.41;5062167;28;45336;-60
2022/08/12 11:11:56;;;;;;;;;6.50;6.50;;;;;40.04;19.68;100980.03;5061848;28;46233;-59
2022/08/12 11:14:31;;;;;;;;;4.25;4.25;;;;;40.47;19.06;100983.22;5061820;28;45293;-59
2022/08/12 11:16:58;;;;;;;;;8.00;5.75;;;;;40.90;18.98;100973.56;5061456;28;45378;-60
2022/08/12 11:19:24;;;;;;;;;6.75;6.75;;;;;41.21;18.28;100969.25;5061847;28;45281;-60
2022/08/12 11:21:51;;;;;;;;;7.00;6.00;;;;;41.52;18.51;100970.34;5061555;28;45252;-60
2022/08/12 11:24:16;;;;;;;;;6.75;5.00;;;;;41.81;17.67;100967.16;5061818;28;45298;-60
2022/08/12 11:26:42;;;;;;;;;5.75;5.75;;;;;42.12;18.11;100955.25;5061687;28;45252;-59
2022/08/12 11:29:07;;;;;;;;;8.75;7.00;;;;;42.42;17.29;100964.75;5060449;28;45439;-59
2022/08/12 11:31:32;;;;;;;;;6.00;6.00;;;;;42.66;16.94;100961.09;5061130;28;45446;-60
2022/08/12 11:33:58;;;;;;;;;5.00;5.00;;;;;42.93;17.07;100958.00;5068175;28;45256;-60
2022/08/12 11:36:23;;;;;;;;;6.75;6.75;;;;;43.15;17.28;100946.50;5061693;28;45299;-60
2022/08/12 11:38:49;;;;;;;;;6.25;6.25;;;;;43.45;17.02;100942.84;5061415;28;45442;-60
2022/08/12 11:41:15;;;;;;;;;5.25;5.25;;;;;43.68;16.65;100937.41;5061273;28;46256;-59
2022/08/12 11:43:40;;;;;;;;;7.50;5.75;;;;;43.88;16.32;100939.00;5060725;28;45303;-59
2022/08/12 11:46:06;;;;;;;;;6.00;6.00;;;;;44.04;16.27;100942.16;5061346;28;46282;-59
2022/08/12 11:48:36;;;;;;;;;6.00;6.00;;;;;44.18;15.74;100946.38;5061456;28;45277;-59
2022/08/12 11:51:02;;;;;;;;;5.00;5.00;;;;;44.36;15.81;100942.66;5066288;28;46130;-60
2022/08/12 11:53:27;;;;;;;;;5.75;4.50;;;;;44.47;15.76;100936.25;5081731;27;45271;-60
2022/08/12 11:55:52;;;;;;;;;5.00;5.00;;;;;44.62;15.37;100937.66;5081849;28;46210;-60
2022/08/12 11:58:19;;;;;;;;;6.00;6.00;;;;;44.77;15.29;100939.91;5081627;28;45317;-60
2022/08/12 12:00:45;;;;;;;;;6.00;5.00;;;;;44.89;15.14;100932.41;5081047;27;46189;-60
2022/08/12 12:03:10;;;;;;;;;5.00;5.00;;;;;45.02;15.18;100924.88;5069807;28;45317;-60
2022/08/12 12:05:35;;;;;;;;;6.25;4.75;;;;;45.12;15.19;100916.75;5061316;28;45354;-61
2022/08/12 12:08:01;;;;;;;;;7.00;6.00;;;;;45.18;14.85;100926.88;5061603;28;45471;-61
2022/08/12 12:10:26;;;;;;;;;8.25;6.00;;;;;45.23;14.92;100921.44;5060925;28;45428;-61
2022/08/12 12:12:51;;;;;;;;;6.50;5.75;;;;;45.33;15.00;100917.19;5061092;28;45363;-61
2022/08/12 12:15:17;;;;;;;;;5.00;5.00;;;;;45.39;14.35;100905.91;5061151;28;45460;-61
2022/08/12 12:17:43;;;;;;;;;7.00;5.25;;;;;45.43;14.59;100915.41;5060801;28;45382;-61
2022/08/12 12:20:10;;;;;;;;;6.00;6.00;;;;;45.35;14.39;100910.28;5060762;28;45427;-61
2022/08/12 12:22:38;;;;;;;;;6.75;6.75;;;;;45.21;14.19;100914.47;5060879;28;45557;-61
2022/08/12 12:25:04;;;;;;;;;5.75;5.75;;;;;45.04;13.95;100912.47;5060917;28;45309;-61
2022/08/12 12:27:50;;;;;;;;;6.00;6.00;;;;;44.95;14.38;100908.44;5060964;28;45158;-60
2022/08/12 12:30:15;;;;;;;;;6.00;4.25;;;;;44.98;14.21;100898.78;5067926;28;45373;-61
2022/08/12 12:32:41;;;;;;;;;7.00;6.00;;;;;45.16;14.49;100895.81;5080622;28;45385;-61
2022/08/12 12:35:06;;;;;;;;;6.00;6.00;;;;;45.41;14.95;100908.44;5081274;28;45290;-61
2022/08/12 12:37:32;;;;;;;;;11.25;9.00;;;;;45.75;14.47;100906.53;5080765;28;45552;-61
2022/08/12 12:39:58;;;;;;;;;6.50;6.50;;;;;46.11;14.34;100903.47;5081118;28;46277;-61
2022/08/12 12:42:23;;;;;;;;;6.00;6.00;;;;;46.50;14.50;100908.19;5080625;28;45295;-61
2022/08/12 12:44:48;;;;;;;;;8.50;6.75;;;;;46.87;13.93;100902.81;5072340;28;48832;-60
2022/08/12 12:47:15;;;;;;;;;6.00;6.00;;;;;47.24;14.30;100901.25;5073664;28;47947;-58
2022/08/12 12:49:41;;;;;;;;;4.00;4.00;;;;;47.61;13.46;100897.66;5078487;28;47093;-59
2022/08/12 12:52:06;;;;;;;;;7.00;7.00;;;;;48.00;14.27;100896.56;5074762;28;45409;-60
2022/08/12 12:54:31;;;;;;;;;6.50;6.50;;;;;48.40;13.50;100897.06;5079776;28;45220;-60
2022/08/12 12:56:57;;;;;;;;;8.50;6.00;;;;;48.79;13.34;100897.47;5065794;28;45337;-59
2022/08/12 12:59:23;;;;;;;;;9.50;6.75;;;;;49.15;13.88;100891.16;5072211;28;47110;-59
2022/08/12 13:01:49;;;;;;;;;6.75;6.75;;;;;49.54;13.41;100882.25;5073534;28;45228;-58
2022/08/12 13:04:15;;;;;;;;;5.75;5.75;;;;;49.92;13.70;100879.94;5060579;28;45231;-59
2022/08/12 13:06:40;;;;;;;;;6.25;6.00;;;;;50.32;13.28;100877.31;5060306;28;45372;-60
2022/08/12 13:09:08;;;;;;;;;7.00;7.00;;;;;50.67;12.82;100878.28;5060503;28;45362;-60
2022/08/12 13:11:34;;;;;;;;;5.50;5.50;;;;;50.99;13.02;100876.97;5060023;28;45248;-60